createdAt,value
2023-04-23T00:02:03.828Z,98181.90
2023-04-23T00:04:35.955Z,98175.86
2023-04-23T00:07:33.085Z,98176.39
2023-04-23T00:10:32.443Z,98183.75
2023-04-23T00:13:45.566Z,98182.09
2023-04-23T00:19:36.979Z,98182.98
2023-04-23T00:22:09.317Z,98183.91
2023-04-23T00:25:07.843Z,98201.31
2023-04-23T00:27:11.506Z,98199.12
2023-04-23T00:29:41.929Z,98194.72
2023-04-23T00:32:11.880Z,98206.98
2023-04-23T00:34:42.044Z,98212.15
2023-04-23T00:37:34.457Z,98230.40
2023-04-23T00:40:14.480Z,98222.98
2023-04-23T00:45:21.458Z,98239.87
2023-04-23T00:47:52.866Z,98248.87
2023-04-23T00:50:22.846Z,98251.84
2023-04-23T00:53:00.228Z,98243.08
2023-04-23T00:55:34.108Z,98241.17
2023-04-23T01:01:21.668Z,98244.66
2023-04-23T01:04:15.842Z,98264.81
2023-04-23T01:09:38.883Z,98250.30
2023-04-23T01:12:26.626Z,98253.80
2023-04-23T01:14:59.219Z,98253.80
2023-04-23T01:17:31.796Z,98253.50
2023-04-23T01:20:04.242Z,98249.42
2023-04-23T01:22:47.162Z,98255.37
2023-04-23T01:26:11.987Z,98257.28
2023-04-23T01:28:48.648Z,98258.64
2023-04-23T01:31:20.538Z,98263.48
2023-04-23T01:36:45.748Z,98271.09
2023-04-23T01:39:15.658Z,98275.71
2023-04-23T01:41:56.129Z,98283.03
2023-04-23T01:44:27.532Z,98283.56
2023-04-23T01:47:00.482Z,98277.58
2023-04-23T01:49:47.181Z,98272.92
2023-04-23T02:06:51.710Z,98256.81
2023-04-23T02:09:22.964Z,98272.67
2023-04-23T02:11:52.966Z,98290.12
2023-04-23T02:14:28.880Z,98286.57
2023-04-23T02:17:09.010Z,98280.84
2023-04-23T02:19:43.112Z,98273.95
2023-04-23T02:25:46.017Z,98304.46
2023-04-23T02:34:58.604Z,98307.66
2023-04-23T02:37:58.733Z,98307.34
2023-04-23T02:44:00.999Z,98314.08
2023-04-23T02:46:36.454Z,98313.79
2023-04-23T02:49:40.495Z,98306.91
2023-04-23T02:52:39.134Z,98291.39
2023-04-23T02:55:38.082Z,98304.73
2023-04-23T03:00:58.404Z,98297.86
2023-04-23T03:03:35.357Z,98281.86
2023-04-23T03:06:05.534Z,98281.61
2023-04-23T03:08:38.892Z,98289.30
2023-04-23T03:11:14.141Z,98285.76
2023-04-23T03:16:51.196Z,98281.39
2023-04-23T03:19:30.071Z,98285.69
2023-04-23T03:22:03.241Z,98275.88
2023-04-23T03:24:37.497Z,98267.64
2023-04-23T03:27:07.587Z,98263.56
2023-04-23T03:29:40.354Z,98268.31
2023-04-23T03:32:10.642Z,98264.30
2023-04-23T03:34:54.495Z,98257.24
2023-04-23T03:37:34.495Z,98253.55
2023-04-23T03:40:05.855Z,98260.63
2023-04-23T03:42:36.044Z,98251.98
2023-04-23T03:45:06.888Z,98252.28
2023-04-23T03:47:39.654Z,98250.47
2023-04-23T03:50:10.702Z,98237.43
2023-04-23T03:52:52.254Z,98244.84
2023-04-23T03:55:48.158Z,98251.64
2023-04-23T03:58:38.209Z,98256.55
2023-04-23T04:01:10.284Z,98260.35
2023-04-23T04:03:42.045Z,98254.08
2023-04-23T04:06:16.724Z,98264.13
2023-04-23T04:08:47.115Z,98271.34
2023-04-23T04:11:25.386Z,98286.44
2023-04-23T04:14:08.333Z,98272.00
2023-04-23T04:16:51.176Z,98255.13
2023-04-23T04:19:39.535Z,98254.02
2023-04-23T04:22:09.718Z,98262.41
2023-04-23T04:24:50.917Z,98267.03
2023-04-23T04:27:24.878Z,98257.44
2023-04-23T04:29:56.237Z,98250.09
2023-04-23T04:35:25.655Z,98271.52
2023-04-23T04:38:05.415Z,98266.62
2023-04-23T04:40:41.649Z,98257.09
2023-04-23T04:43:14.416Z,98249.67
2023-04-23T04:45:45.506Z,98255.95
2023-04-23T04:48:15.670Z,98249.08
2023-04-23T04:50:47.778Z,98258.06
2023-04-23T04:53:19.203Z,98259.14
2023-04-23T04:56:00.967Z,98270.79
2023-04-23T04:58:41.018Z,98274.88
2023-04-23T05:01:11.670Z,98271.86
2023-04-23T05:03:41.955Z,98266.95
2023-04-23T05:06:14.568Z,98268.53
2023-04-23T05:11:59.999Z,98257.36
2023-04-23T05:14:35.597Z,98267.11
2023-04-23T05:17:11.873Z,98226.97
2023-04-23T05:32:16.686Z,98278.65
2023-04-23T05:34:50.870Z,98282.34
2023-04-23T05:37:21.223Z,98284.17
2023-04-23T05:39:51.510Z,98284.17
2023-04-23T05:42:24.425Z,98268.92
2023-04-23T05:44:54.747Z,98257.18
2023-04-23T05:47:27.867Z,98258.76
2023-04-23T05:50:13.252Z,98229.95
2023-04-23T05:52:56.076Z,98265.27
2023-04-23T05:55:27.572Z,98251.06
2023-04-23T05:57:57.594Z,98261.34
2023-04-23T06:00:27.663Z,98274.66
2023-04-23T06:03:07.150Z,98278.74
2023-04-23T06:05:46.609Z,98282.00
2023-04-23T06:08:48.732Z,98279.50
2023-04-23T06:14:43.278Z,98262.67
2023-04-23T06:20:28.952Z,98262.75
2023-04-23T06:23:05.318Z,98274.67
2023-04-23T06:28:23.184Z,98283.77
2023-04-23T06:30:54.780Z,98299.33
2023-04-23T06:33:29.142Z,98299.87
2023-04-23T06:36:03.264Z,98301.45
2023-04-23T06:38:43.631Z,98264.22
2023-04-23T06:41:16.149Z,98276.28
2023-04-23T06:44:04.326Z,98287.77
2023-04-23T06:46:33.905Z,98277.64
2023-04-23T06:49:05.325Z,98261.89
2023-04-23T06:51:35.360Z,98265.87
2023-04-23T06:54:07.098Z,98276.75
2023-04-23T06:56:44.850Z,98276.67
2023-04-23T06:59:15.155Z,98269.59
2023-04-23T07:02:02.399Z,98274.73
2023-04-23T07:04:34.893Z,98271.41
2023-04-23T07:07:06.695Z,98249.33
2023-04-23T07:09:37.983Z,98238.98
2023-04-23T07:15:11.928Z,98242.61
2023-04-23T07:17:43.080Z,98238.34
2023-04-23T07:21:05.394Z,98239.56
2023-04-23T07:23:54.097Z,98248.91
2023-04-23T07:27:17.780Z,98248.00
2023-04-23T07:32:59.708Z,98258.13
2023-04-23T07:35:54.831Z,98262.28
2023-04-23T07:38:50.931Z,98260.63
2023-04-23T07:50:15.603Z,98253.40
2023-04-23T07:52:45.585Z,98245.75
2023-04-23T07:55:16.070Z,98242.45
2023-04-23T07:57:46.038Z,98242.45
2023-04-23T08:00:17.968Z,98237.77
2023-04-23T08:02:51.052Z,98231.18
2023-04-23T08:05:28.305Z,98223.56
2023-04-23T08:11:32.774Z,98223.48
2023-04-23T08:14:26.075Z,98221.02
2023-04-23T08:19:50.168Z,98221.16
2023-04-23T08:22:22.962Z,98221.16
2023-04-23T08:24:53.201Z,98221.16
2023-04-23T08:27:23.696Z,98221.91
2023-04-23T08:32:55.846Z,98220.12
2023-04-23T08:39:03.513Z,98216.32
2023-04-23T08:41:43.830Z,98217.36
2023-04-23T08:44:54.193Z,98216.53
2023-04-23T08:56:47.169Z,98207.41
2023-04-23T09:00:22.378Z,98214.95
2023-04-23T09:03:51.484Z,98213.30
2023-04-23T09:06:22.938Z,98230.36
2023-04-23T09:09:33.960Z,98246.38
2023-04-23T09:12:16.370Z,98248.48
2023-04-23T09:15:29.570Z,98255.27
2023-04-23T09:21:32.618Z,98253.02
2023-04-23T09:27:27.291Z,98243.63
2023-04-23T09:30:30.120Z,98241.70
2023-04-23T09:33:08.694Z,98251.42
2023-04-23T09:35:40.874Z,98251.12
2023-04-23T09:53:48.306Z,98278.34
2023-04-23T10:08:45.009Z,98292.83
2023-04-23T10:13:47.098Z,98285.13
2023-04-23T10:19:11.127Z,98285.87
2023-04-23T10:21:52.216Z,98272.01
2023-04-23T10:24:49.560Z,98259.83
2023-04-23T10:27:32.921Z,98267.31
2023-04-23T10:36:36.458Z,98282.38
2023-04-23T10:39:30.516Z,98282.83
2023-04-23T10:47:49.108Z,98273.78
2023-04-23T10:53:51.739Z,98289.45
2023-04-23T10:56:15.998Z,98289.69
2023-04-23T10:58:52.556Z,98288.55
2023-04-23T11:01:24.746Z,98288.25
2023-04-23T11:04:00.465Z,98292.00
2023-04-23T11:07:14.708Z,98282.73
2023-04-23T11:13:09.172Z,98298.29
2023-04-23T11:15:54.024Z,98296.23
2023-04-23T11:19:11.431Z,98291.33
2023-04-23T11:22:12.100Z,98284.55
2023-04-23T11:28:05.585Z,98286.57
2023-04-23T11:30:35.695Z,98289.65
2023-04-23T11:36:35.787Z,98284.30
2023-04-23T11:39:07.030Z,98289.73
2023-04-23T11:45:40.954Z,98300.59
2023-04-23T11:48:18.514Z,98310.09
2023-04-23T11:52:07.074Z,98309.59
2023-04-23T11:54:49.580Z,98309.36
2023-04-23T11:57:43.571Z,98310.89
2023-04-23T12:00:30.926Z,98307.72
2023-04-23T12:03:17.989Z,98311.34
2023-04-23T12:06:47.762Z,98299.58
2023-04-23T12:15:51.268Z,98308.47
2023-04-23T12:18:40.048Z,98317.48
2023-04-23T12:27:06.987Z,98314.49
2023-04-23T12:29:37.283Z,98318.80
2023-04-23T12:32:10.511Z,98322.05
2023-04-23T12:34:42.288Z,98327.39
2023-04-23T12:37:12.585Z,98320.53
2023-04-23T12:39:44.828Z,98326.41
2023-04-23T12:43:02.037Z,98334.72
2023-04-23T12:45:49.944Z,98338.66
2023-04-23T12:48:40.937Z,98331.98
2023-04-23T12:51:37.165Z,98332.91
2023-04-23T12:54:32.594Z,98333.80
2023-04-23T13:00:56.514Z,98332.41
2023-04-23T13:03:54.390Z,98345.09
2023-04-23T13:06:24.409Z,98352.50
2023-04-23T13:09:19.525Z,98357.80
2023-04-23T13:25:00.824Z,98407.98
2023-04-23T13:28:20.064Z,98414.17
2023-04-23T13:30:59.702Z,98417.80
2023-04-23T13:34:06.083Z,98424.45
2023-04-23T13:36:40.703Z,98424.20
2023-04-23T13:39:43.737Z,98430.80
2023-04-23T13:45:16.130Z,98433.06
2023-04-23T13:47:46.243Z,98434.70
2023-04-23T13:50:16.985Z,98431.98
2023-04-23T13:52:47.047Z,98429.87
2023-04-23T13:55:23.602Z,98431.55
2023-04-23T13:58:15.758Z,98436.46
2023-04-23T14:01:03.761Z,98433.20
2023-04-23T14:03:44.170Z,98444.09
2023-04-23T14:09:54.907Z,98438.11
2023-04-23T14:22:07.232Z,98447.92
2023-04-23T14:28:42.374Z,98456.77
2023-04-23T14:34:47.688Z,98459.21
2023-04-23T14:37:20.042Z,98463.16
2023-04-23T14:42:49.674Z,98477.06
2023-04-23T14:45:45.496Z,98480.31
2023-04-23T14:47:53.208Z,98486.59
2023-04-23T14:50:23.236Z,98472.32
2023-04-23T14:52:53.114Z,98469.67
2023-04-23T14:55:32.775Z,98469.96
2023-04-23T14:58:06.246Z,98470.50
2023-04-23T15:00:39.672Z,98461.64
2023-04-23T15:03:23.062Z,98463.83
2023-04-23T15:05:53.573Z,98463.69
2023-04-23T15:08:23.581Z,98465.59
2023-04-23T15:10:53.524Z,98461.50
2023-04-23T15:13:41.305Z,98460.14
2023-04-23T15:16:13.188Z,98461.50
2023-04-23T15:18:49.161Z,98461.50
2023-04-23T15:21:23.969Z,98461.18
2023-04-23T15:23:56.464Z,98468.81
2023-04-23T15:26:25.643Z,98466.63
2023-04-23T15:28:55.789Z,98467.70
2023-04-23T15:31:28.838Z,98468.53
2023-04-23T15:34:13.615Z,98470.42
2023-04-23T15:36:52.009Z,98474.51
2023-04-23T15:39:56.062Z,98468.16
2023-04-23T15:42:42.544Z,98473.97
2023-04-23T15:46:53.444Z,98469.59
2023-04-23T15:48:00.239Z,98471.78
2023-04-23T15:50:30.238Z,98472.61
2023-04-23T15:53:01.592Z,98472.32
2023-04-23T15:55:59.859Z,98472.32
2023-04-23T15:58:30.677Z,98466.02
2023-04-23T16:01:04.521Z,98475.05
2023-04-23T16:06:49.070Z,98474.05
2023-04-23T16:12:39.513Z,98469.28
2023-04-23T16:17:41.548Z,98462.18
2023-04-23T16:20:13.672Z,98461.50
2023-04-23T16:22:43.743Z,98458.09
2023-04-23T16:25:30.389Z,98460.28
2023-04-23T16:28:30.185Z,98455.13
2023-04-23T16:31:12.712Z,98455.66
2023-04-23T16:34:09.661Z,98441.08
2023-04-23T16:37:07.822Z,98450.22
2023-04-23T16:39:49.746Z,98426.50
2023-04-23T16:45:10.603Z,98445.70
2023-04-23T16:47:40.969Z,98429.83
2023-04-23T16:50:14.893Z,98442.30
2023-04-23T16:52:44.435Z,98402.70
2023-04-23T16:55:21.056Z,98441.30
2023-04-23T16:58:07.947Z,98442.55
2023-04-23T17:01:19.069Z,98437.17
2023-04-23T17:03:56.464Z,98438.11
2023-04-23T17:06:44.232Z,98437.39
2023-04-23T17:09:14.529Z,98445.95
2023-04-23T17:11:45.559Z,98434.80
2023-04-23T17:14:15.502Z,98435.16
2023-04-23T17:16:45.844Z,98432.75
2023-04-23T17:22:21.573Z,98425.13
2023-04-23T17:25:41.236Z,98418.31
2023-04-23T17:28:22.708Z,98410.14
2023-04-23T17:31:14.597Z,98417.77
2023-04-23T17:33:57.699Z,98415.11
2023-04-23T17:39:18.342Z,98422.97
2023-04-23T17:41:48.673Z,98406.63
2023-04-23T17:44:18.808Z,98411.03
2023-04-23T17:46:56.961Z,98410.20
2023-04-23T17:49:28.544Z,98408.59
2023-04-23T17:52:33.578Z,98401.50
2023-04-23T17:55:22.393Z,98405.33
2023-04-23T17:58:18.717Z,98396.33
2023-04-23T18:07:40.205Z,98380.13
2023-04-23T18:10:11.504Z,98379.45
2023-04-23T18:13:14.455Z,98372.64
2023-04-23T18:16:09.856Z,98364.24
2023-04-23T18:22:16.502Z,98356.61
2023-04-23T18:25:15.399Z,98353.34
2023-04-23T18:28:20.599Z,98354.70
2023-04-23T18:31:13.916Z,98354.17
2023-04-23T18:34:29.320Z,98335.22
2023-04-23T18:37:34.762Z,98347.36
2023-04-23T18:40:10.002Z,98346.00
2023-04-23T18:43:24.504Z,98341.69
2023-04-23T18:49:43.945Z,98316.09
2023-04-23T18:52:45.548Z,98304.00
2023-04-23T18:58:22.720Z,98299.11
2023-04-23T19:04:10.478Z,98294.91
2023-04-23T19:09:30.209Z,98290.34
2023-04-23T19:12:00.123Z,98297.16
2023-04-23T19:14:30.202Z,98297.75
2023-04-23T19:17:00.152Z,98283.59
2023-04-23T19:19:39.513Z,98291.54
2023-04-23T19:22:57.610Z,98275.19
2023-04-23T19:25:45.456Z,98282.32
2023-04-23T19:28:35.419Z,98273.60
2023-04-23T19:31:45.100Z,98264.05
2023-04-23T19:34:34.775Z,98274.74
2023-04-23T19:37:47.158Z,98260.52
2023-04-23T19:40:54.009Z,98264.41
2023-04-23T19:43:34.423Z,98257.91
2023-04-23T19:46:16.968Z,98258.42
2023-04-23T19:49:17.959Z,98253.03
2023-04-23T19:51:26.916Z,98234.21
2023-04-23T19:53:58.600Z,98246.81
2023-04-23T19:56:28.503Z,98232.66
2023-04-23T19:59:00.113Z,98238.70
2023-04-23T20:01:36.027Z,98244.44
2023-04-23T20:07:51.686Z,98232.77
2023-04-23T20:11:05.246Z,98221.64
2023-04-23T20:14:07.447Z,98217.30
2023-04-23T20:19:43.264Z,98205.91
2023-04-23T20:23:18.728Z,98193.95
2023-04-23T20:25:45.932Z,98195.60
2023-04-23T20:28:55.196Z,98189.38
2023-04-23T20:34:51.015Z,98175.91
2023-04-23T20:37:32.774Z,98154.92
2023-04-23T20:44:07.363Z,98176.14
2023-04-23T20:46:41.583Z,98160.92
2023-04-23T20:50:02.921Z,98151.43
2023-04-23T20:52:49.551Z,98126.46
2023-04-23T20:56:02.179Z,98152.05
2023-04-23T20:58:36.770Z,98148.55
2023-04-23T21:05:00.341Z,98127.92
2023-04-23T21:07:58.962Z,98133.70
2023-04-23T21:10:55.733Z,98120.84
2023-04-23T21:13:29.678Z,98132.17
2023-04-23T21:17:17.563Z,98127.86
2023-04-23T21:18:32.368Z,98121.36
2023-04-23T21:21:02.293Z,98098.58
2023-04-23T21:23:35.672Z,98119.27
2023-04-23T21:26:06.956Z,98114.95
2023-04-23T21:28:48.735Z,98110.36
2023-04-23T21:34:38.913Z,98121.68
2023-04-23T21:37:44.271Z,98108.67
2023-04-23T21:40:53.220Z,98107.36
2023-04-23T21:43:33.655Z,98101.41
2023-04-23T21:46:03.614Z,98102.27
2023-04-23T21:48:35.288Z,98099.58
2023-04-23T21:51:05.776Z,98092.80
2023-04-23T21:53:35.819Z,98095.85
2023-04-23T22:02:22.559Z,98091.19
2023-04-23T22:05:00.529Z,98085.15
2023-04-23T22:11:13.574Z,98088.08
2023-04-23T22:23:39.561Z,98072.26
2023-04-23T22:26:13.848Z,98086.88
2023-04-23T22:32:19.768Z,98092.19
2023-04-23T22:38:55.772Z,98089.33
2023-04-23T22:41:37.228Z,98088.59
2023-04-23T22:44:34.664Z,98088.08
2023-04-23T22:47:21.259Z,98091.39
2023-04-23T22:50:51.975Z,98095.25
2023-04-23T22:53:54.739Z,98095.59
2023-04-23T22:56:27.321Z,98095.36
2023-04-23T22:59:41.116Z,98099.77
2023-04-23T23:03:00.974Z,98102.30
2023-04-23T23:05:34.900Z,98101.78
2023-04-23T23:08:32.746Z,98101.27
2023-04-23T23:11:49.107Z,98098.57
2023-04-23T23:14:40.524Z,98102.16
2023-04-23T23:17:53.059Z,98098.09
2023-04-23T23:20:47.072Z,98103.05
2023-04-23T23:23:48.397Z,98099.53
2023-04-23T23:27:07.220Z,98104.48
2023-04-23T23:29:45.381Z,98099.86
2023-04-23T23:33:04.008Z,98103.72
2023-04-23T23:35:34.068Z,98111.68
2023-04-23T23:38:53.303Z,98110.34
2023-04-23T23:41:14.573Z,98113.69
2023-04-23T23:50:12.014Z,98099.62
2023-04-23T23:53:27.467Z,98105.34
